Olcott, NY (14126)

7:32 PM EDT on July 07, 2015 (GMT -0400)
BackBay Marina | | Change Station
CLOSE
Current Station
Personal Weather Station
Location: Olcott, NY
Elevation: 240 ft
Nearby Weather Stations

Elev 240 ft 43.34 °N, 78.72 °W | Updated 4 seconds ago

Mostly Cloudy
Mostly Cloudy
74.6 °F
Feels Like 74 °F
N
0.0
Wind Variable Wind from SSW
Gusts 4.0 mph

Today
High -- | Low -- °F
--% Chance of Precip.
Yesterday
High -- | Low -- °F
Precip. -- in
5:41 AM 8:57 PM
Waning Gibbous, 60% visible
Pressure 29.83 in
Visibility 10.0 miles
Clouds Few 3500 ft
Mostly Cloudy 11000 ft
Overcast 18000 ft
Heat Index 74 °F
Dew Point 71 °F
Humidity 88%
Rainfall 0.00 in
Snow Depth Not available.
UV 0.0 out of 12
Pollen 3.00 out of 12
Air Quality Not available.
Flu Activity Not available.
METAR KIAG 072253Z 22010KT 10SM -RA FEW035 BKN110 OVC180 24/21 A2984 RMK AO2 RAB42 SLP099 P0000 T02390206

More Conditions Fewer Conditions

Pressure 29.83 in
Visibility 10.0 miles
Clouds Few 3500 ft
Mostly Cloudy 11000 ft
Overcast 18000 ft
Heat Index 74 °F
Dew Point 71 °F
Humidity 88%
Rainfall 0.00 in
Snow Depth Not available.
UV 0.0 out of 12
Pollen 3.00 out of 12
Air Quality Not available.
Flu Activity Not available.
METAR KIAG 072253Z 22010KT 10SM -RA FEW035 BKN110 OVC180 24/21 A2984 RMK AO2 RAB42 SLP099 P0000 T02390206

More Conditions Fewer Conditions

10-Day Weather Forecast

×

Almanac

Astronomy

Jul. 07, 2015 Rise Set
Actual Time
Civil Twilight
Nautical Twilight
Astronomical Twilight
Moon
Length of Visible Light
Length of Day
Tomorrow will be .
, % of the Moon is Illuminated

Today's Extremes

State Highs State Lows

Community

WunderPhotos

Upload Photos

1,835,961 photos uploaded!

WunderBlogs® & News

Nearby

Air Quality

  Air Quality AQ Index Pollutant
Not available.

Snow Depth

Station Depth Elevation

Earthquake Activity

City Distance Mag. Time & Date
Minimum magnitude displayed is 2.5.

Coastal Water Temperatures

Place Temperature

Stations

Nearby Weather Stations

Station Location Temp. Windchill Dew Point Humidity Wind Precip. Elev Updated Type